Observations for BOSCOMBE DOWN, United Kingdom (EGDM)

EGDM 190250Z AUTO 21010KT 9999 SCT008/// BKN018/// 16/15 Q1011  
EGDM 190150Z AUTO 20012KT 9999 SCT006/// BKN011/// 16/16 Q1011 RERA 
EGDM 190050Z AUTO 21014KT 9999 SCT012/// SCT020/// BKN027/// 17/15 Q1011 RERA   
EGDM 182350Z AUTO 21014KT 9999 SCT013/// SCT060/// BKN150/// 17/15 Q1012
EGDM 182250Z AUTO 21015KT 9999 BKN150/// 17/14 Q1012
EGDM 182150Z AUTO 21016KT 9999 FEW050/// BKN160/// 17/14 Q1012  
EGDM 182050Z AUTO 21013KT 9999 FEW013/// BKN050/// BKN160/// 17/14 Q1012
EGDM 181950Z AUTO 21012KT 9999 BKN013/// BKN048/// 17/14 Q1012  
EGDM 181850Z AUTO 20014KT 9999 SCT013/// BKN046/// 17/14 Q1012 RERA 
EGDM 181750Z AUTO 21015KT 9999 -RADZ SCT014/// SCT034/// 18/15 Q1011
EGDM 181650Z 21010G24KT 9999 FEW017 BKN047 18/14 Q1011 BLU  
EGDM 181550Z 21015KT 9999 SCT016 BKN050 18/15 Q1011 WHT NOSIG   
EGDM 181450Z 21018KT 9999 FEW016 SCT022 BKN050 19/15 Q1011 WHT NOSIG
EGDM 181434Z 22019KT 9999 FEW015 SCT020 BKN050 18/15 Q1011 WHT TEMPO SCT013 GRN 
EGDM 181434Z 22019KT 9999 FEW015 SCT020 BKN050 18/15 Q1011 WHT TEMPO SCT013 GRN
EGDM 181350Z 21017KT 9999 -RA SCT012 BKN020 19/15 Q1011 GRN BECMG BKN020 WHT
EGDM 181339Z 21014KT 9999 FEW012 SCT016 BKN035 18/15 Q1011 WHT NOSIG
EGDM 181339Z 21014KT 9999 FEW012 SCT016 BKN035 18/15 Q1011 WHT NOSIG
EGDM 181250Z 21015KT 9999 FEW020 BKN033 18/14 Q1010 BLU TEMPO SCT020 WHT
EGDM 181150Z 22016KT 9999 SCT026 BKN030 20/13 Q1010 BLU NOSIG   
EGDM 181050Z 23018KT 9999 FEW025 SCT032 BKN220 19/12 Q1009 BLU NOSIG
EGDM 180950Z 23019KT 9999 FEW023 SCT027 BKN220 18/12 Q1009 BLU NOSIG
EGDM 180850Z 24018KT 9999 SCT018 SCT028 BKN220 17/13 Q1008 WHT BECMG SCT025 BLU 
EGDM 180750Z 23021KT 9999 BKN013 BKN022 16/13 Q1006 GRN BECMG BKN016 WHT
EGDM 180650Z 21017KT 9999 BKN010 BKN020 16/15 Q1005 GRN BECMG BKN015 WHT
EGDM 180550Z 22020KT 9999 -RA BKN009 OVC020 16/15 Q1005 GRN 
EGDM 180450Z AUTO 21023KT 8000 -RA OVC007/// 16/15 Q1004
EGDM 180350Z AUTO 20021KT 9999 -DZ BKN007/// SCT017/// 16/15 Q1004  
EGDM 180250Z AUTO 20023KT 5000 -RADZ OVC009/// 17/16 Q1004